sensor_id;sensor_type;location;lat;lon;timestamp;P1;durP1;ratioP1;P2;durP2;ratioP2
14377;SDS011;7272;53.668;9.578;2022-12-18T00:01:34;12.23;;;10.90;;
14377;SDS011;7272;53.668;9.578;2022-12-18T00:04:38;11.60;;;10.50;;
14377;SDS011;7272;53.668;9.578;2022-12-18T00:07:41;10.80;;;9.57;;
14377;SDS011;7272;53.668;9.578;2022-12-18T00:10:45;13.77;;;10.63;;
14377;SDS011;7272;53.668;9.578;2022-12-18T00:13:48;12.97;;;11.57;;
14377;SDS011;7272;53.668;9.578;2022-12-18T00:16:51;12.30;;;10.67;;
14377;SDS011;7272;53.668;9.578;2022-12-18T00:19:56;10.50;;;9.40;;
14377;SDS011;7272;53.668;9.578;2022-12-18T00:23:06;14.23;;;11.10;;
14377;SDS011;7272;53.668;9.578;2022-12-18T00:26:12;10.70;;;9.70;;
14377;SDS011;7272;53.668;9.578;2022-12-18T00:29:18;9.77;;;8.80;;
14377;SDS011;7272;53.668;9.578;2022-12-18T00:32:23;14.27;;;10.73;;
14377;SDS011;7272;53.668;9.578;2022-12-18T00:35:27;10.63;;;9.50;;
14377;SDS011;7272;53.668;9.578;2022-12-18T00:38:31;10.37;;;8.67;;
14377;SDS011;7272;53.668;9.578;2022-12-18T00:41:38;11.83;;;10.13;;
14377;SDS011;7272;53.668;9.578;2022-12-18T00:45:01;10.50;;;9.33;;
14377;SDS011;7272;53.668;9.578;2022-12-18T00:48:08;11.80;;;10.03;;
14377;SDS011;7272;53.668;9.578;2022-12-18T00:51:13;10.13;;;9.07;;
14377;SDS011;7272;53.668;9.578;2022-12-18T00:54:16;10.13;;;9.13;;
14377;SDS011;7272;53.668;9.578;2022-12-18T00:57:24;10.30;;;9.03;;
14377;SDS011;7272;53.668;9.578;2022-12-18T01:00:27;9.17;;;8.23;;
14377;SDS011;7272;53.668;9.578;2022-12-18T01:03:31;8.67;;;7.73;;
14377;SDS011;7272;53.668;9.578;2022-12-18T01:06:37;9.50;;;8.17;;
14377;SDS011;7272;53.668;9.578;2022-12-18T01:09:43;9.47;;;8.47;;
14377;SDS011;7272;53.668;9.578;2022-12-18T01:12:59;10.90;;;8.43;;
14377;SDS011;7272;53.668;9.578;2022-12-18T01:16:04;12.60;;;10.10;;
14377;SDS011;7272;53.668;9.578;2022-12-18T01:19:09;11.57;;;9.60;;
14377;SDS011;7272;53.668;9.578;2022-12-18T01:22:11;12.70;;;9.23;;
14377;SDS011;7272;53.668;9.578;2022-12-18T01:25:14;9.73;;;8.83;;
14377;SDS011;7272;53.668;9.578;2022-12-18T01:28:19;8.83;;;7.93;;
14377;SDS011;7272;53.668;9.578;2022-12-18T01:31:25;9.63;;;8.67;;
14377;SDS011;7272;53.668;9.578;2022-12-18T01:34:29;9.83;;;8.83;;
14377;SDS011;7272;53.668;9.578;2022-12-18T01:37:37;9.77;;;8.57;;
14377;SDS011;7272;53.668;9.578;2022-12-18T01:40:40;8.60;;;7.50;;
14377;SDS011;7272;53.668;9.578;2022-12-18T01:43:52;9.13;;;7.87;;
14377;SDS011;7272;53.668;9.578;2022-12-18T01:46:57;10.77;;;8.67;;
14377;SDS011;7272;53.668;9.578;2022-12-18T01:50:01;10.27;;;8.43;;
14377;SDS011;7272;53.668;9.578;2022-12-18T01:53:06;10.13;;;8.20;;
14377;SDS011;7272;53.668;9.578;2022-12-18T01:56:13;9.93;;;8.20;;
14377;SDS011;7272;53.668;9.578;2022-12-18T01:59:19;10.37;;;8.67;;
14377;SDS011;7272;53.668;9.578;2022-12-18T02:02:23;9.73;;;8.73;;
14377;SDS011;7272;53.668;9.578;2022-12-18T02:05:29;9.77;;;8.07;;
14377;SDS011;7272;53.668;9.578;2022-12-18T02:08:41;8.80;;;7.73;;
14377;SDS011;7272;53.668;9.578;2022-12-18T02:11:52;8.23;;;7.40;;
14377;SDS011;7272;53.668;9.578;2022-12-18T02:15:05;8.80;;;7.77;;
14377;SDS011;7272;53.668;9.578;2022-12-18T02:18:15;8.27;;;7.40;;
14377;SDS011;7272;53.668;9.578;2022-12-18T02:21:25;8.73;;;7.87;;
14377;SDS011;7272;53.668;9.578;2022-12-18T02:24:38;11.30;;;7.10;;
14377;SDS011;7272;53.668;9.578;2022-12-18T02:27:52;10.13;;;8.70;;
14377;SDS011;7272;53.668;9.578;2022-12-18T02:30:57;8.87;;;7.97;;
14377;SDS011;7272;53.668;9.578;2022-12-18T02:34:04;10.03;;;7.87;;
14377;SDS011;7272;53.668;9.578;2022-12-18T02:37:12;9.00;;;8.07;;
14377;SDS011;7272;53.668;9.578;2022-12-18T02:40:17;9.20;;;7.97;;
14377;SDS011;7272;53.668;9.578;2022-12-18T02:43:26;8.37;;;7.00;;
14377;SDS011;7272;53.668;9.578;2022-12-18T02:46:31;9.17;;;7.77;;
14377;SDS011;7272;53.668;9.578;2022-12-18T02:49:44;8.17;;;7.00;;
14377;SDS011;7272;53.668;9.578;2022-12-18T02:52:56;9.67;;;8.10;;
14377;SDS011;7272;53.668;9.578;2022-12-18T02:56:09;9.03;;;7.93;;
14377;SDS011;7272;53.668;9.578;2022-12-18T02:59:19;8.87;;;6.63;;
14377;SDS011;7272;53.668;9.578;2022-12-18T03:02:31;8.13;;;6.93;;
14377;SDS011;7272;53.668;9.578;2022-12-18T03:05:40;8.10;;;7.20;;
14377;SDS011;7272;53.668;9.578;2022-12-18T03:08:47;7.70;;;6.90;;
14377;SDS011;7272;53.668;9.578;2022-12-18T03:11:58;9.30;;;7.60;;
14377;SDS011;7272;53.668;9.578;2022-12-18T03:15:24;8.43;;;7.57;;
14377;SDS011;7272;53.668;9.578;2022-12-18T03:18:38;8.53;;;7.60;;
14377;SDS011;7272;53.668;9.578;2022-12-18T03:21:48;12.73;;;7.97;;
14377;SDS011;7272;53.668;9.578;2022-12-18T03:24:53;8.10;;;7.30;;
14377;SDS011;7272;53.668;9.578;2022-12-18T03:27:58;7.77;;;6.80;;
14377;SDS011;7272;53.668;9.578;2022-12-18T03:31:06;11.97;;;8.77;;
14377;SDS011;7272;53.668;9.578;2022-12-18T03:34:12;8.37;;;7.40;;
14377;SDS011;7272;53.668;9.578;2022-12-18T03:37:20;8.47;;;7.57;;
14377;SDS011;7272;53.668;9.578;2022-12-18T03:40:25;7.90;;;7.10;;
14377;SDS011;7272;53.668;9.578;2022-12-18T03:43:35;9.23;;;7.77;;
14377;SDS011;7272;53.668;9.578;2022-12-18T03:46:49;8.30;;;7.13;;
14377;SDS011;7272;53.668;9.578;2022-12-18T03:50:03;10.77;;;8.03;;
14377;SDS011;7272;53.668;9.578;2022-12-18T03:53:17;8.77;;;6.93;;
14377;SDS011;7272;53.668;9.578;2022-12-18T03:56:29;7.23;;;6.33;;
14377;SDS011;7272;53.668;9.578;2022-12-18T03:59:33;10.27;;;7.67;;
14377;SDS011;7272;53.668;9.578;2022-12-18T04:02:43;8.23;;;6.83;;
14377;SDS011;7272;53.668;9.578;2022-12-18T04:05:56;8.13;;;7.33;;
14377;SDS011;7272;53.668;9.578;2022-12-18T04:09:03;9.67;;;7.50;;
14377;SDS011;7272;53.668;9.578;2022-12-18T04:12:10;8.63;;;7.83;;
14377;SDS011;7272;53.668;9.578;2022-12-18T04:15:13;7.90;;;7.10;;
14377;SDS011;7272;53.668;9.578;2022-12-18T04:18:18;9.57;;;8.40;;
14377;SDS011;7272;53.668;9.578;2022-12-18T04:21:22;9.33;;;7.87;;
14377;SDS011;7272;53.668;9.578;2022-12-18T04:24:26;9.37;;;7.93;;
14377;SDS011;7272;53.668;9.578;2022-12-18T04:27:39;9.07;;;7.47;;
14377;SDS011;7272;53.668;9.578;2022-12-18T04:30:43;7.87;;;7.17;;
14377;SDS011;7272;53.668;9.578;2022-12-18T04:33:55;8.90;;;7.73;;
14377;SDS011;7272;53.668;9.578;2022-12-18T04:36:59;9.03;;;7.20;;
14377;SDS011;7272;53.668;9.578;2022-12-18T04:40:02;8.47;;;7.10;;
14377;SDS011;7272;53.668;9.578;2022-12-18T04:43:12;9.20;;;7.77;;
14377;SDS011;7272;53.668;9.578;2022-12-18T04:46:15;9.40;;;8.30;;
14377;SDS011;7272;53.668;9.578;2022-12-18T04:49:19;10.27;;;7.87;;
14377;SDS011;7272;53.668;9.578;2022-12-18T04:52:22;9.03;;;7.33;;
14377;SDS011;7272;53.668;9.578;2022-12-18T04:55:24;8.37;;;7.33;;
14377;SDS011;7272;53.668;9.578;2022-12-18T04:58:29;7.77;;;7.00;;
14377;SDS011;7272;53.668;9.578;2022-12-18T05:01:32;7.83;;;6.90;;
14377;SDS011;7272;53.668;9.578;2022-12-18T05:04:36;7.17;;;6.47;;
14377;SDS011;7272;53.668;9.578;2022-12-18T05:07:39;8.33;;;7.53;;
14377;SDS011;7272;53.668;9.578;2022-12-18T05:10:41;7.53;;;6.73;;
14377;SDS011;7272;53.668;9.578;2022-12-18T05:13:44;8.20;;;7.37;;
14377;SDS011;7272;53.668;9.578;2022-12-18T05:16:47;9.07;;;8.17;;
14377;SDS011;7272;53.668;9.578;2022-12-18T05:19:51;9.27;;;8.33;;
14377;SDS011;7272;53.668;9.578;2022-12-18T05:22:53;10.40;;;8.73;;
14377;SDS011;7272;53.668;9.578;2022-12-18T05:25:57;8.33;;;7.53;;
14377;SDS011;7272;53.668;9.578;2022-12-18T05:29:01;8.37;;;7.57;;
14377;SDS011;7272;53.668;9.578;2022-12-18T05:32:03;9.77;;;8.40;;
14377;SDS011;7272;53.668;9.578;2022-12-18T05:35:08;7.87;;;7.17;;
14377;SDS011;7272;53.668;9.578;2022-12-18T05:38:11;8.40;;;7.40;;
14377;SDS011;7272;53.668;9.578;2022-12-18T05:41:14;7.63;;;6.67;;
14377;SDS011;7272;53.668;9.578;2022-12-18T05:44:16;8.30;;;7.07;;
14377;SDS011;7272;53.668;9.578;2022-12-18T05:47:19;6.97;;;6.27;;
14377;SDS011;7272;53.668;9.578;2022-12-18T05:50:23;8.00;;;7.20;;
14377;SDS011;7272;53.668;9.578;2022-12-18T05:53:25;7.57;;;6.77;;
14377;SDS011;7272;53.668;9.578;2022-12-18T05:56:28;7.20;;;6.30;;
14377;SDS011;7272;53.668;9.578;2022-12-18T05:59:30;9.03;;;6.87;;
14377;SDS011;7272;53.668;9.578;2022-12-18T06:02:33;7.53;;;6.50;;
14377;SDS011;7272;53.668;9.578;2022-12-18T06:05:38;9.13;;;6.73;;
14377;SDS011;7272;53.668;9.578;2022-12-18T06:08:42;7.10;;;5.67;;
14377;SDS011;7272;53.668;9.578;2022-12-18T06:11:45;7.23;;;6.53;;
14377;SDS011;7272;53.668;9.578;2022-12-18T06:14:47;7.63;;;6.60;;
14377;SDS011;7272;53.668;9.578;2022-12-18T06:17:50;6.83;;;6.13;;
14377;SDS011;7272;53.668;9.578;2022-12-18T06:20:55;8.37;;;6.77;;
14377;SDS011;7272;53.668;9.578;2022-12-18T06:23:59;7.70;;;6.73;;
14377;SDS011;7272;53.668;9.578;2022-12-18T06:27:02;7.07;;;6.17;;
14377;SDS011;7272;53.668;9.578;2022-12-18T06:30:05;7.90;;;6.43;;
14377;SDS011;7272;53.668;9.578;2022-12-18T06:33:08;8.23;;;6.90;;
14377;SDS011;7272;53.668;9.578;2022-12-18T06:36:13;9.37;;;7.27;;
14377;SDS011;7272;53.668;9.578;2022-12-18T06:39:17;7.30;;;6.10;;
14377;SDS011;7272;53.668;9.578;2022-12-18T06:42:22;8.10;;;7.27;;
14377;SDS011;7272;53.668;9.578;2022-12-18T06:45:26;6.67;;;6.03;;
14377;SDS011;7272;53.668;9.578;2022-12-18T06:48:29;7.43;;;6.40;;
14377;SDS011;7272;53.668;9.578;2022-12-18T06:51:33;7.27;;;6.57;;
14377;SDS011;7272;53.668;9.578;2022-12-18T06:54:36;6.67;;;5.97;;
14377;SDS011;7272;53.668;9.578;2022-12-18T06:57:38;6.97;;;6.27;;
14377;SDS011;7272;53.668;9.578;2022-12-18T07:00:41;8.87;;;7.10;;
14377;SDS011;7272;53.668;9.578;2022-12-18T07:03:43;8.03;;;6.83;;
14377;SDS011;7272;53.668;9.578;2022-12-18T07:06:47;8.37;;;7.57;;
14377;SDS011;7272;53.668;9.578;2022-12-18T07:09:50;7.50;;;6.80;;
14377;SDS011;7272;53.668;9.578;2022-12-18T07:12:52;10.27;;;7.13;;
14377;SDS011;7272;53.668;9.578;2022-12-18T07:15:55;9.40;;;7.20;;
14377;SDS011;7272;53.668;9.578;2022-12-18T07:19:04;7.27;;;6.57;;
14377;SDS011;7272;53.668;9.578;2022-12-18T07:22:08;10.07;;;8.17;;
14377;SDS011;7272;53.668;9.578;2022-12-18T07:25:10;8.70;;;7.50;;
14377;SDS011;7272;53.668;9.578;2022-12-18T07:28:13;11.17;;;7.67;;
14377;SDS011;7272;53.668;9.578;2022-12-18T07:31:16;9.10;;;7.40;;
14377;SDS011;7272;53.668;9.578;2022-12-18T07:34:20;9.10;;;7.37;;
14377;SDS011;7272;53.668;9.578;2022-12-18T07:37:24;7.73;;;6.33;;
14377;SDS011;7272;53.668;9.578;2022-12-18T07:40:26;6.90;;;6.30;;
14377;SDS011;7272;53.668;9.578;2022-12-18T07:43:29;7.63;;;6.63;;
14377;SDS011;7272;53.668;9.578;2022-12-18T07:46:31;9.00;;;7.87;;
14377;SDS011;7272;53.668;9.578;2022-12-18T07:49:34;8.37;;;7.57;;
14377;SDS011;7272;53.668;9.578;2022-12-18T07:52:38;7.40;;;6.63;;
14377;SDS011;7272;53.668;9.578;2022-12-18T07:55:41;7.37;;;6.17;;
14377;SDS011;7272;53.668;9.578;2022-12-18T07:58:44;8.30;;;7.40;;
14377;SDS011;7272;53.668;9.578;2022-12-18T08:01:49;8.03;;;7.00;;
14377;SDS011;7272;53.668;9.578;2022-12-18T08:04:52;8.00;;;6.17;;
14377;SDS011;7272;53.668;9.578;2022-12-18T08:07:56;8.47;;;7.33;;
14377;SDS011;7272;53.668;9.578;2022-12-18T08:11:00;7.77;;;6.97;;
14377;SDS011;7272;53.668;9.578;2022-12-18T08:14:03;7.83;;;6.30;;
14377;SDS011;7272;53.668;9.578;2022-12-18T08:17:05;9.03;;;7.63;;
14377;SDS011;7272;53.668;9.578;2022-12-18T08:20:08;7.77;;;6.70;;
14377;SDS011;7272;53.668;9.578;2022-12-18T08:23:13;7.87;;;6.93;;
14377;SDS011;7272;53.668;9.578;2022-12-18T08:26:15;7.77;;;7.03;;
14377;SDS011;7272;53.668;9.578;2022-12-18T08:29:18;16.53;;;6.57;;
14377;SDS011;7272;53.668;9.578;2022-12-18T08:32:20;7.60;;;6.80;;
14377;SDS011;7272;53.668;9.578;2022-12-18T08:35:23;8.10;;;7.30;;
14377;SDS011;7272;53.668;9.578;2022-12-18T08:38:27;8.53;;;7.00;;
14377;SDS011;7272;53.668;9.578;2022-12-18T08:41:30;8.63;;;7.07;;
14377;SDS011;7272;53.668;9.578;2022-12-18T08:44:32;8.63;;;6.40;;
14377;SDS011;7272;53.668;9.578;2022-12-18T08:47:40;7.50;;;6.40;;
14377;SDS011;7272;53.668;9.578;2022-12-18T08:50:42;7.27;;;6.30;;
14377;SDS011;7272;53.668;9.578;2022-12-18T08:53:46;7.63;;;6.70;;
14377;SDS011;7272;53.668;9.578;2022-12-18T08:56:49;8.40;;;6.97;;
14377;SDS011;7272;53.668;9.578;2022-12-18T08:59:52;7.53;;;6.73;;
14377;SDS011;7272;53.668;9.578;2022-12-18T09:02:54;7.70;;;6.27;;
14377;SDS011;7272;53.668;9.578;2022-12-18T09:05:57;7.83;;;7.13;;
14377;SDS011;7272;53.668;9.578;2022-12-18T09:09:01;6.57;;;5.90;;
14377;SDS011;7272;53.668;9.578;2022-12-18T09:12:04;7.77;;;6.73;;
14377;SDS011;7272;53.668;9.578;2022-12-18T09:15:07;8.73;;;6.87;;
14377;SDS011;7272;53.668;9.578;2022-12-18T09:18:09;7.03;;;6.30;;
14377;SDS011;7272;53.668;9.578;2022-12-18T09:21:13;7.63;;;6.70;;
14377;SDS011;7272;53.668;9.578;2022-12-18T09:24:18;6.90;;;6.23;;
14377;SDS011;7272;53.668;9.578;2022-12-18T09:27:24;7.37;;;6.67;;
14377;SDS011;7272;53.668;9.578;2022-12-18T09:30:26;7.03;;;6.30;;
14377;SDS011;7272;53.668;9.578;2022-12-18T09:33:29;8.43;;;7.50;;
14377;SDS011;7272;53.668;9.578;2022-12-18T09:36:31;8.03;;;6.67;;
14377;SDS011;7272;53.668;9.578;2022-12-18T09:39:37;8.83;;;7.03;;
14377;SDS011;7272;53.668;9.578;2022-12-18T09:42:40;10.63;;;7.00;;
14377;SDS011;7272;53.668;9.578;2022-12-18T09:45:47;8.00;;;6.53;;
14377;SDS011;7272;53.668;9.578;2022-12-18T09:48:54;8.10;;;7.30;;
14377;SDS011;7272;53.668;9.578;2022-12-18T09:52:00;9.73;;;7.73;;
14377;SDS011;7272;53.668;9.578;2022-12-18T09:55:11;7.33;;;6.53;;
14377;SDS011;7272;53.668;9.578;2022-12-18T09:58:20;8.30;;;7.50;;
14377;SDS011;7272;53.668;9.578;2022-12-18T10:01:31;7.33;;;6.63;;
14377;SDS011;7272;53.668;9.578;2022-12-18T10:04:34;7.60;;;6.80;;
14377;SDS011;7272;53.668;9.578;2022-12-18T10:07:42;7.60;;;6.73;;
14377;SDS011;7272;53.668;9.578;2022-12-18T10:10:53;8.57;;;6.70;;
14377;SDS011;7272;53.668;9.578;2022-12-18T10:14:00;7.97;;;6.73;;
14377;SDS011;7272;53.668;9.578;2022-12-18T10:17:13;8.53;;;7.07;;
14377;SDS011;7272;53.668;9.578;2022-12-18T10:20:27;7.70;;;6.93;;
14377;SDS011;7272;53.668;9.578;2022-12-18T10:23:40;9.47;;;6.73;;
14377;SDS011;7272;53.668;9.578;2022-12-18T10:26:53;9.20;;;6.70;;
14377;SDS011;7272;53.668;9.578;2022-12-18T10:30:04;7.80;;;7.03;;
14377;SDS011;7272;53.668;9.578;2022-12-18T10:33:16;7.43;;;6.60;;
14377;SDS011;7272;53.668;9.578;2022-12-18T10:36:20;8.37;;;6.60;;
14377;SDS011;7272;53.668;9.578;2022-12-18T10:39:24;7.43;;;6.50;;
14377;SDS011;7272;53.668;9.578;2022-12-18T10:42:28;7.03;;;6.33;;
14377;SDS011;7272;53.668;9.578;2022-12-18T10:45:32;7.53;;;6.17;;
14377;SDS011;7272;53.668;9.578;2022-12-18T10:48:36;7.47;;;6.77;;
14377;SDS011;7272;53.668;9.578;2022-12-18T10:51:42;7.23;;;6.53;;
14377;SDS011;7272;53.668;9.578;2022-12-18T10:54:49;8.33;;;7.53;;
14377;SDS011;7272;53.668;9.578;2022-12-18T10:57:57;6.77;;;6.17;;
14377;SDS011;7272;53.668;9.578;2022-12-18T11:01:19;7.70;;;6.57;;
14377;SDS011;7272;53.668;9.578;2022-12-18T11:04:22;7.07;;;6.23;;
14377;SDS011;7272;53.668;9.578;2022-12-18T11:07:26;9.00;;;7.30;;
14377;SDS011;7272;53.668;9.578;2022-12-18T11:10:50;6.87;;;6.17;;
14377;SDS011;7272;53.668;9.578;2022-12-18T11:14:02;7.10;;;6.43;;
14377;SDS011;7272;53.668;9.578;2022-12-18T11:17:17;8.53;;;6.40;;
14377;SDS011;7272;53.668;9.578;2022-12-18T11:20:21;7.30;;;6.40;;
14377;SDS011;7272;53.668;9.578;2022-12-18T11:23:32;6.93;;;6.33;;
14377;SDS011;7272;53.668;9.578;2022-12-18T11:26:35;8.50;;;6.67;;
14377;SDS011;7272;53.668;9.578;2022-12-18T11:29:41;7.73;;;6.43;;
14377;SDS011;7272;53.668;9.578;2022-12-18T11:32:44;7.53;;;5.43;;
14377;SDS011;7272;53.668;9.578;2022-12-18T11:35:49;6.50;;;5.60;;
14377;SDS011;7272;53.668;9.578;2022-12-18T11:38:54;6.70;;;5.43;;
14377;SDS011;7272;53.668;9.578;2022-12-18T11:42:00;6.10;;;5.50;;
14377;SDS011;7272;53.668;9.578;2022-12-18T11:45:23;5.73;;;5.13;;
14377;SDS011;7272;53.668;9.578;2022-12-18T11:48:32;6.23;;;5.63;;
14377;SDS011;7272;53.668;9.578;2022-12-18T11:51:41;6.97;;;6.03;;
14377;SDS011;7272;53.668;9.578;2022-12-18T11:54:51;6.73;;;5.97;;
14377;SDS011;7272;53.668;9.578;2022-12-18T11:57:55;9.53;;;6.37;;
14377;SDS011;7272;53.668;9.578;2022-12-18T12:01:09;6.23;;;5.63;;
14377;SDS011;7272;53.668;9.578;2022-12-18T12:07:55;7.33;;;6.03;;
14377;SDS011;7272;53.668;9.578;2022-12-18T12:11:07;6.00;;;5.43;;
14377;SDS011;7272;53.668;9.578;2022-12-18T12:14:19;6.40;;;5.80;;
14377;SDS011;7272;53.668;9.578;2022-12-18T12:17:36;6.00;;;4.90;;
14377;SDS011;7272;53.668;9.578;2022-12-18T12:20:47;7.93;;;5.87;;
14377;SDS011;7272;53.668;9.578;2022-12-18T12:23:57;5.97;;;5.27;;
14377;SDS011;7272;53.668;9.578;2022-12-18T12:27:09;6.23;;;5.63;;
14377;SDS011;7272;53.668;9.578;2022-12-18T12:30:21;5.97;;;5.37;;
14377;SDS011;7272;53.668;9.578;2022-12-18T12:33:32;6.03;;;5.37;;
14377;SDS011;7272;53.668;9.578;2022-12-18T12:36:45;7.23;;;5.40;;
14377;SDS011;7272;53.668;9.578;2022-12-18T12:39:56;5.70;;;5.20;;
14377;SDS011;7272;53.668;9.578;2022-12-18T12:43:01;5.93;;;5.30;;
14377;SDS011;7272;53.668;9.578;2022-12-18T12:46:15;5.70;;;5.20;;
14377;SDS011;7272;53.668;9.578;2022-12-18T12:49:21;6.03;;;5.37;;
14377;SDS011;7272;53.668;9.578;2022-12-18T12:52:30;5.67;;;4.83;;
14377;SDS011;7272;53.668;9.578;2022-12-18T12:55:35;7.23;;;5.70;;
14377;SDS011;7272;53.668;9.578;2022-12-18T12:58:40;6.43;;;5.27;;
14377;SDS011;7272;53.668;9.578;2022-12-18T13:01:49;6.13;;;5.27;;
14377;SDS011;7272;53.668;9.578;2022-12-18T13:05:00;7.13;;;5.77;;
14377;SDS011;7272;53.668;9.578;2022-12-18T13:08:11;6.23;;;5.63;;
14377;SDS011;7272;53.668;9.578;2022-12-18T13:11:31;6.23;;;5.63;;
14377;SDS011;7272;53.668;9.578;2022-12-18T13:14:54;5.80;;;5.30;;
14377;SDS011;7272;53.668;9.578;2022-12-18T13:18:16;5.83;;;5.23;;
14377;SDS011;7272;53.668;9.578;2022-12-18T13:21:23;6.70;;;6.10;;
14377;SDS011;7272;53.668;9.578;2022-12-18T13:24:30;6.80;;;6.00;;
14377;SDS011;7272;53.668;9.578;2022-12-18T13:31:00;6.53;;;5.90;;
14377;SDS011;7272;53.668;9.578;2022-12-18T13:34:11;6.90;;;6.20;;
14377;SDS011;7272;53.668;9.578;2022-12-18T13:37:39;7.43;;;5.70;;
14377;SDS011;7272;53.668;9.578;2022-12-18T13:40:53;6.77;;;6.07;;
14377;SDS011;7272;53.668;9.578;2022-12-18T13:44:10;7.13;;;6.43;;
14377;SDS011;7272;53.668;9.578;2022-12-18T13:47:24;7.63;;;6.60;;
14377;SDS011;7272;53.668;9.578;2022-12-18T13:50:30;7.10;;;6.27;;
14377;SDS011;7272;53.668;9.578;2022-12-18T13:53:35;7.43;;;6.37;;
14377;SDS011;7272;53.668;9.578;2022-12-18T13:56:42;7.87;;;6.20;;
14377;SDS011;7272;53.668;9.578;2022-12-18T13:59:46;6.93;;;6.23;;
14377;SDS011;7272;53.668;9.578;2022-12-18T14:02:49;6.70;;;6.10;;
14377;SDS011;7272;53.668;9.578;2022-12-18T14:05:54;6.90;;;6.20;;
14377;SDS011;7272;53.668;9.578;2022-12-18T14:09:01;7.93;;;5.77;;
14377;SDS011;7272;53.668;9.578;2022-12-18T14:12:05;7.97;;;6.13;;
14377;SDS011;7272;53.668;9.578;2022-12-18T14:15:30;6.27;;;5.67;;
14377;SDS011;7272;53.668;9.578;2022-12-18T14:18:42;6.03;;;5.43;;
14377;SDS011;7272;53.668;9.578;2022-12-18T14:21:49;6.97;;;6.27;;
14377;SDS011;7272;53.668;9.578;2022-12-18T14:25:10;6.67;;;6.07;;
14377;SDS011;7272;53.668;9.578;2022-12-18T14:28:18;6.97;;;6.27;;
14377;SDS011;7272;53.668;9.578;2022-12-18T14:31:23;7.37;;;6.50;;
14377;SDS011;7272;53.668;9.578;2022-12-18T14:34:27;6.27;;;5.77;;
14377;SDS011;7272;53.668;9.578;2022-12-18T14:37:30;7.30;;;6.40;;
14377;SDS011;7272;53.668;9.578;2022-12-18T14:40:35;8.60;;;7.70;;
14377;SDS011;7272;53.668;9.578;2022-12-18T14:43:38;8.60;;;7.70;;
14377;SDS011;7272;53.668;9.578;2022-12-18T14:46:42;10.37;;;9.03;;
14377;SDS011;7272;53.668;9.578;2022-12-18T14:49:46;10.57;;;8.73;;
14377;SDS011;7272;53.668;9.578;2022-12-18T14:52:49;8.63;;;7.80;;
14377;SDS011;7272;53.668;9.578;2022-12-18T14:55:54;9.77;;;8.57;;
14377;SDS011;7272;53.668;9.578;2022-12-18T14:58:58;13.57;;;10.03;;
14377;SDS011;7272;53.668;9.578;2022-12-18T15:02:03;13.10;;;9.40;;
14377;SDS011;7272;53.668;9.578;2022-12-18T15:05:24;11.93;;;10.00;;
14377;SDS011;7272;53.668;9.578;2022-12-18T15:08:32;11.77;;;10.33;;
14377;SDS011;7272;53.668;9.578;2022-12-18T15:11:46;15.90;;;11.27;;
14377;SDS011;7272;53.668;9.578;2022-12-18T15:14:50;12.93;;;11.17;;
14377;SDS011;7272;53.668;9.578;2022-12-18T15:17:56;12.57;;;11.23;;
14377;SDS011;7272;53.668;9.578;2022-12-18T15:21:07;13.30;;;11.20;;
14377;SDS011;7272;53.668;9.578;2022-12-18T15:24:15;14.40;;;11.17;;
14377;SDS011;7272;53.668;9.578;2022-12-18T15:27:25;13.87;;;11.50;;
14377;SDS011;7272;53.668;9.578;2022-12-18T15:30:30;14.97;;;11.13;;
14377;SDS011;7272;53.668;9.578;2022-12-18T15:33:34;16.53;;;11.77;;
14377;SDS011;7272;53.668;9.578;2022-12-18T15:36:39;15.90;;;12.07;;
14377;SDS011;7272;53.668;9.578;2022-12-18T15:39:42;15.57;;;11.57;;
14377;SDS011;7272;53.668;9.578;2022-12-18T15:42:46;19.00;;;13.20;;
14377;SDS011;7272;53.668;9.578;2022-12-18T15:46:09;17.57;;;12.77;;
14377;SDS011;7272;53.668;9.578;2022-12-18T15:49:14;17.90;;;13.03;;
14377;SDS011;7272;53.668;9.578;2022-12-18T15:52:18;18.73;;;13.07;;
14377;SDS011;7272;53.668;9.578;2022-12-18T15:55:26;15.57;;;11.90;;
14377;SDS011;7272;53.668;9.578;2022-12-18T15:58:48;18.37;;;13.33;;
14377;SDS011;7272;53.668;9.578;2022-12-18T16:01:50;16.10;;;12.10;;
14377;SDS011;7272;53.668;9.578;2022-12-18T16:04:54;14.63;;;12.07;;
14377;SDS011;7272;53.668;9.578;2022-12-18T16:07:57;17.43;;;12.83;;
14377;SDS011;7272;53.668;9.578;2022-12-18T16:11:00;16.30;;;13.17;;
14377;SDS011;7272;53.668;9.578;2022-12-18T16:14:09;18.03;;;12.73;;
14377;SDS011;7272;53.668;9.578;2022-12-18T16:17:18;17.37;;;12.47;;
14377;SDS011;7272;53.668;9.578;2022-12-18T16:20:21;16.47;;;12.70;;
14377;SDS011;7272;53.668;9.578;2022-12-18T16:23:24;17.57;;;12.93;;
14377;SDS011;7272;53.668;9.578;2022-12-18T16:26:27;17.60;;;13.03;;
14377;SDS011;7272;53.668;9.578;2022-12-18T16:29:34;19.30;;;13.90;;
14377;SDS011;7272;53.668;9.578;2022-12-18T16:32:36;19.27;;;14.80;;
14377;SDS011;7272;53.668;9.578;2022-12-18T16:35:39;16.53;;;13.63;;
14377;SDS011;7272;53.668;9.578;2022-12-18T16:38:43;20.83;;;14.70;;
14377;SDS011;7272;53.668;9.578;2022-12-18T16:41:47;17.87;;;14.37;;
14377;SDS011;7272;53.668;9.578;2022-12-18T16:44:54;18.23;;;14.60;;
14377;SDS011;7272;53.668;9.578;2022-12-18T16:47:57;23.13;;;15.00;;
14377;SDS011;7272;53.668;9.578;2022-12-18T16:51:00;20.13;;;14.90;;
14377;SDS011;7272;53.668;9.578;2022-12-18T16:54:04;19.47;;;14.87;;
14377;SDS011;7272;53.668;9.578;2022-12-18T16:57:08;21.23;;;15.30;;
14377;SDS011;7272;53.668;9.578;2022-12-18T17:00:16;18.87;;;14.77;;
14377;SDS011;7272;53.668;9.578;2022-12-18T17:03:19;22.00;;;15.07;;
14377;SDS011;7272;53.668;9.578;2022-12-18T17:06:22;21.40;;;15.60;;
14377;SDS011;7272;53.668;9.578;2022-12-18T17:09:25;22.80;;;15.23;;
14377;SDS011;7272;53.668;9.578;2022-12-18T17:12:28;20.23;;;15.27;;
14377;SDS011;7272;53.668;9.578;2022-12-18T17:15:35;20.37;;;14.70;;
14377;SDS011;7272;53.668;9.578;2022-12-18T17:18:39;21.23;;;15.83;;
14377;SDS011;7272;53.668;9.578;2022-12-18T17:21:42;22.13;;;15.97;;
14377;SDS011;7272;53.668;9.578;2022-12-18T17:24:45;17.50;;;14.03;;
14377;SDS011;7272;53.668;9.578;2022-12-18T17:27:51;23.33;;;15.40;;
14377;SDS011;7272;53.668;9.578;2022-12-18T17:30:56;20.83;;;14.77;;
14377;SDS011;7272;53.668;9.578;2022-12-18T17:34:00;18.67;;;14.03;;
14377;SDS011;7272;53.668;9.578;2022-12-18T17:37:03;19.07;;;13.33;;
14377;SDS011;7272;53.668;9.578;2022-12-18T17:40:07;21.17;;;15.13;;
14377;SDS011;7272;53.668;9.578;2022-12-18T17:43:12;20.30;;;14.83;;
14377;SDS011;7272;53.668;9.578;2022-12-18T17:46:18;20.60;;;14.17;;
14377;SDS011;7272;53.668;9.578;2022-12-18T17:49:23;20.80;;;14.87;;
14377;SDS011;7272;53.668;9.578;2022-12-18T17:52:29;21.37;;;14.17;;
14377;SDS011;7272;53.668;9.578;2022-12-18T17:55:36;20.13;;;15.67;;
14377;SDS011;7272;53.668;9.578;2022-12-18T17:58:40;19.10;;;14.67;;
14377;SDS011;7272;53.668;9.578;2022-12-18T18:01:45;19.50;;;13.70;;
14377;SDS011;7272;53.668;9.578;2022-12-18T18:04:48;19.00;;;14.40;;
14377;SDS011;7272;53.668;9.578;2022-12-18T18:07:50;17.57;;;13.97;;
14377;SDS011;7272;53.668;9.578;2022-12-18T18:10:54;20.37;;;13.70;;
14377;SDS011;7272;53.668;9.578;2022-12-18T18:14:19;17.23;;;13.40;;
14377;SDS011;7272;53.668;9.578;2022-12-18T18:17:35;17.13;;;12.93;;
14377;SDS011;7272;53.668;9.578;2022-12-18T18:20:43;17.37;;;13.63;;
14377;SDS011;7272;53.668;9.578;2022-12-18T18:23:51;16.53;;;12.33;;
14377;SDS011;7272;53.668;9.578;2022-12-18T18:27:08;17.33;;;13.70;;
14377;SDS011;7272;53.668;9.578;2022-12-18T18:30:20;17.47;;;13.50;;
14377;SDS011;7272;53.668;9.578;2022-12-18T18:33:35;16.93;;;12.80;;
14377;SDS011;7272;53.668;9.578;2022-12-18T18:36:48;15.07;;;12.83;;
14377;SDS011;7272;53.668;9.578;2022-12-18T18:39:52;15.53;;;12.87;;
14377;SDS011;7272;53.668;9.578;2022-12-18T18:42:56;16.77;;;12.87;;
14377;SDS011;7272;53.668;9.578;2022-12-18T18:46:01;18.10;;;13.60;;
14377;SDS011;7272;53.668;9.578;2022-12-18T18:49:17;14.00;;;12.33;;
14377;SDS011;7272;53.668;9.578;2022-12-18T18:52:32;15.20;;;11.77;;
14377;SDS011;7272;53.668;9.578;2022-12-18T18:55:42;15.60;;;12.73;;
14377;SDS011;7272;53.668;9.578;2022-12-18T18:58:54;17.00;;;12.60;;